logo
Rechercher aéroport 
image banner adimage banner adimage banner ad
image banner ad

RCSS - Taipei/Songshan

Situé à Taipei, Taiwan, Province of China

ICAO - RCSS, IATA - TSA

Données fournies par Airmate  

Information générale

Coordonnées: N25°4'11" E121°33'9"
Élévation : 18 feet MSL.
 
Voir autres Aéroports à Taipei (municipality)

Données opérationnelles

Special qualification required
Heure actuelle UTC:
Heure actuelle locale:
Météo
METAR: RCSS 232006Z 06012G24KT 360V100 3500 -SHRA SCT008 BKN025 BKN040 29/25 Q0992 WS R10 NOSIG RMK A2930
TAF: TAF AMD RCSS 231821Z 2318/2418 08015KT 8000 FEW012 BKN032 TEMPO 2318/2324 07012G25KT 2500 SHRA FEW010 FEW015CB BKN020 BKN050 BECMG 2400/2402 06020G30KT SCT010 BKN022 BKN050 TEMPO 2402/2406 5000 SHRA SCT008 FEW015CB BKN016 BKN040 TEMPO 2406/2412 06025G40KT 2000 SHRA SCT006 BKN011 FEW012CB OVC020 TEMPO 2412/2418 VRB10G30KT 3200 SHRA SCT008 FEW015CB BKN016 BKN040
Voir NOTAMs / SUP AIP / TFR affectant cet aéroport [VIEW]
Fréquences de communication: [VIEW]

Pistes:

Identifiant RWYQFULongueur (ft)Largeur (ft)SurfaceLDA (ft)
1092°8547197ASP
28272°8547197ASP

Coordonnées de l'aéroport

Adresse: Taipei Taiwan, Province of China

Vue satellite de RCSS